sensor_id;sensor_type;location;lat;lon;timestamp;P1;durP1;ratioP1;P2;durP2;ratioP2
19664;SDS011;9980;51.020;7.772;2022-11-15T00:00:51;14.70;;;10.23;;
19664;SDS011;9980;51.020;7.772;2022-11-15T00:03:36;13.83;;;9.57;;
19664;SDS011;9980;51.020;7.772;2022-11-15T00:06:21;13.50;;;10.00;;
19664;SDS011;9980;51.020;7.772;2022-11-15T00:09:06;11.00;;;9.30;;
19664;SDS011;9980;51.020;7.772;2022-11-15T00:11:51;11.77;;;9.83;;
19664;SDS011;9980;51.020;7.772;2022-11-15T00:14:36;12.37;;;9.10;;
19664;SDS011;9980;51.020;7.772;2022-11-15T00:17:20;11.97;;;10.30;;
19664;SDS011;9980;51.020;7.772;2022-11-15T00:20:05;17.73;;;10.00;;
19664;SDS011;9980;51.020;7.772;2022-11-15T00:22:50;16.00;;;10.57;;
19664;SDS011;9980;51.020;7.772;2022-11-15T00:25:35;11.77;;;10.57;;
19664;SDS011;9980;51.020;7.772;2022-11-15T00:28:20;12.17;;;10.27;;
19664;SDS011;9980;51.020;7.772;2022-11-15T00:31:06;11.70;;;10.47;;
19664;SDS011;9980;51.020;7.772;2022-11-15T00:33:56;13.33;;;10.17;;
19664;SDS011;9980;51.020;7.772;2022-11-15T00:36:40;12.20;;;11.00;;
19664;SDS011;9980;51.020;7.772;2022-11-15T00:39:25;14.70;;;10.53;;
19664;SDS011;9980;51.020;7.772;2022-11-15T00:42:10;13.03;;;10.93;;
19664;SDS011;9980;51.020;7.772;2022-11-15T00:44:54;10.70;;;9.60;;
19664;SDS011;9980;51.020;7.772;2022-11-15T00:47:39;12.27;;;9.40;;
19664;SDS011;9980;51.020;7.772;2022-11-15T00:50:23;12.63;;;9.27;;
19664;SDS011;9980;51.020;7.772;2022-11-15T00:53:08;10.57;;;9.47;;
19664;SDS011;9980;51.020;7.772;2022-11-15T00:55:53;13.07;;;10.10;;
19664;SDS011;9980;51.020;7.772;2022-11-15T00:58:37;10.43;;;9.30;;
19664;SDS011;9980;51.020;7.772;2022-11-15T01:01:23;10.73;;;9.50;;
19664;SDS011;9980;51.020;7.772;2022-11-15T01:04:07;11.60;;;10.30;;
19664;SDS011;9980;51.020;7.772;2022-11-15T01:06:52;12.23;;;9.47;;
19664;SDS011;9980;51.020;7.772;2022-11-15T01:09:37;12.77;;;9.30;;
19664;SDS011;9980;51.020;7.772;2022-11-15T01:12:22;10.90;;;9.80;;
19664;SDS011;9980;51.020;7.772;2022-11-15T01:15:07;13.47;;;10.47;;
19664;SDS011;9980;51.020;7.772;2022-11-15T01:17:51;11.17;;;9.30;;
19664;SDS011;9980;51.020;7.772;2022-11-15T01:20:42;11.43;;;9.10;;
19664;SDS011;9980;51.020;7.772;2022-11-15T01:23:27;12.73;;;9.63;;
19664;SDS011;9980;51.020;7.772;2022-11-15T01:26:14;11.93;;;9.37;;
19664;SDS011;9980;51.020;7.772;2022-11-15T01:28:59;10.50;;;8.50;;
19664;SDS011;9980;51.020;7.772;2022-11-15T01:31:43;11.47;;;9.00;;
19664;SDS011;9980;51.020;7.772;2022-11-15T01:34:28;10.30;;;8.67;;
19664;SDS011;9980;51.020;7.772;2022-11-15T01:37:13;10.77;;;9.00;;
19664;SDS011;9980;51.020;7.772;2022-11-15T01:39:57;9.17;;;8.27;;
19664;SDS011;9980;51.020;7.772;2022-11-15T01:42:42;9.17;;;7.93;;
19664;SDS011;9980;51.020;7.772;2022-11-15T01:45:27;9.70;;;8.63;;
19664;SDS011;9980;51.020;7.772;2022-11-15T01:48:12;7.93;;;7.13;;
19664;SDS011;9980;51.020;7.772;2022-11-15T01:50:56;10.47;;;8.20;;
19664;SDS011;9980;51.020;7.772;2022-11-15T01:53:44;9.20;;;7.83;;
19664;SDS011;9980;51.020;7.772;2022-11-15T01:56:37;8.73;;;7.50;;
19664;SDS011;9980;51.020;7.772;2022-11-15T01:59:35;10.03;;;7.37;;
19664;SDS011;9980;51.020;7.772;2022-11-15T02:02:24;9.27;;;7.10;;
19664;SDS011;9980;51.020;7.772;2022-11-15T02:05:09;9.93;;;6.13;;
19664;SDS011;9980;51.020;7.772;2022-11-15T02:07:55;7.33;;;6.33;;
19664;SDS011;9980;51.020;7.772;2022-11-15T02:10:41;8.63;;;6.97;;
19664;SDS011;9980;51.020;7.772;2022-11-15T02:13:25;9.70;;;7.60;;
19664;SDS011;9980;51.020;7.772;2022-11-15T02:16:23;7.50;;;6.80;;
19664;SDS011;9980;51.020;7.772;2022-11-15T02:26:27;7.60;;;6.77;;
19664;SDS011;9980;51.020;7.772;2022-11-15T02:29:52;8.20;;;7.40;;
19664;SDS011;9980;51.020;7.772;2022-11-15T02:33:04;7.07;;;6.37;;
19664;SDS011;9980;51.020;7.772;2022-11-15T02:36:06;7.20;;;6.17;;
19664;SDS011;9980;51.020;7.772;2022-11-15T02:42:26;9.40;;;7.30;;
19664;SDS011;9980;51.020;7.772;2022-11-15T02:45:37;8.00;;;6.60;;
19664;SDS011;9980;51.020;7.772;2022-11-15T02:48:32;6.57;;;5.97;;
19664;SDS011;9980;51.020;7.772;2022-11-15T02:51:19;7.03;;;6.33;;
19664;SDS011;9980;51.020;7.772;2022-11-15T02:54:05;6.63;;;6.03;;
19664;SDS011;9980;51.020;7.772;2022-11-15T02:56:50;8.10;;;7.33;;
19664;SDS011;9980;51.020;7.772;2022-11-15T02:59:43;7.47;;;6.70;;
19664;SDS011;9980;51.020;7.772;2022-11-15T03:12:12;9.37;;;7.33;;
19664;SDS011;9980;51.020;7.772;2022-11-15T03:15:13;10.47;;;6.83;;
19664;SDS011;9980;51.020;7.772;2022-11-15T03:18:12;6.30;;;5.40;;
19664;SDS011;9980;51.020;7.772;2022-11-15T03:21:13;7.17;;;6.47;;
19664;SDS011;9980;51.020;7.772;2022-11-15T03:24:02;8.53;;;7.37;;
19664;SDS011;9980;51.020;7.772;2022-11-15T03:26:50;7.90;;;6.37;;
19664;SDS011;9980;51.020;7.772;2022-11-15T03:29:39;9.20;;;7.20;;
19664;SDS011;9980;51.020;7.772;2022-11-15T03:32:34;7.07;;;6.47;;
19664;SDS011;9980;51.020;7.772;2022-11-15T03:35:27;8.40;;;7.17;;
19664;SDS011;9980;51.020;7.772;2022-11-15T03:38:19;8.73;;;7.20;;
19664;SDS011;9980;51.020;7.772;2022-11-15T03:41:22;8.77;;;7.73;;
19664;SDS011;9980;51.020;7.772;2022-11-15T03:44:23;7.70;;;6.90;;
19664;SDS011;9980;51.020;7.772;2022-11-15T03:50:45;7.67;;;6.90;;
19664;SDS011;9980;51.020;7.772;2022-11-15T03:53:32;7.87;;;7.07;;
19664;SDS011;9980;51.020;7.772;2022-11-15T03:56:17;8.10;;;7.30;;
19664;SDS011;9980;51.020;7.772;2022-11-15T03:59:02;7.57;;;6.77;;
19664;SDS011;9980;51.020;7.772;2022-11-15T04:01:47;8.30;;;7.47;;
19664;SDS011;9980;51.020;7.772;2022-11-15T04:04:31;8.27;;;6.83;;
19664;SDS011;9980;51.020;7.772;2022-11-15T04:07:16;11.10;;;7.23;;
19664;SDS011;9980;51.020;7.772;2022-11-15T04:10:01;7.33;;;6.63;;
19664;SDS011;9980;51.020;7.772;2022-11-15T04:12:48;6.77;;;6.13;;
19664;SDS011;9980;51.020;7.772;2022-11-15T04:15:36;6.97;;;6.37;;
19664;SDS011;9980;51.020;7.772;2022-11-15T04:18:20;7.00;;;6.30;;
19664;SDS011;9980;51.020;7.772;2022-11-15T04:21:06;9.07;;;7.37;;
19664;SDS011;9980;51.020;7.772;2022-11-15T04:24:11;8.83;;;6.27;;
19664;SDS011;9980;51.020;7.772;2022-11-15T04:26:58;7.43;;;6.73;;
19664;SDS011;9980;51.020;7.772;2022-11-15T04:29:43;10.10;;;6.67;;
19664;SDS011;9980;51.020;7.772;2022-11-15T04:32:28;7.07;;;6.10;;
19664;SDS011;9980;51.020;7.772;2022-11-15T04:35:12;7.50;;;6.70;;
19664;SDS011;9980;51.020;7.772;2022-11-15T04:37:57;7.47;;;6.30;;
19664;SDS011;9980;51.020;7.772;2022-11-15T04:40:43;6.73;;;6.13;;
19664;SDS011;9980;51.020;7.772;2022-11-15T04:43:28;7.47;;;6.70;;
19664;SDS011;9980;51.020;7.772;2022-11-15T04:46:13;6.20;;;5.60;;
19664;SDS011;9980;51.020;7.772;2022-11-15T04:48:58;7.47;;;6.20;;
19664;SDS011;9980;51.020;7.772;2022-11-15T04:51:43;6.83;;;6.13;;
19664;SDS011;9980;51.020;7.772;2022-11-15T04:54:28;7.57;;;6.23;;
19664;SDS011;9980;51.020;7.772;2022-11-15T04:57:13;6.70;;;6.10;;
19664;SDS011;9980;51.020;7.772;2022-11-15T04:59:58;7.67;;;5.10;;
19664;SDS011;9980;51.020;7.772;2022-11-15T05:02:43;5.00;;;4.57;;
19664;SDS011;9980;51.020;7.772;2022-11-15T05:05:46;6.27;;;5.67;;
19664;SDS011;9980;51.020;7.772;2022-11-15T05:08:30;5.83;;;5.27;;
19664;SDS011;9980;51.020;7.772;2022-11-15T05:11:16;6.00;;;5.43;;
19664;SDS011;9980;51.020;7.772;2022-11-15T05:14:01;5.50;;;5.00;;
19664;SDS011;9980;51.020;7.772;2022-11-15T05:16:46;5.67;;;4.60;;
19664;SDS011;9980;51.020;7.772;2022-11-15T05:19:31;6.23;;;4.90;;
19664;SDS011;9980;51.020;7.772;2022-11-15T05:22:16;5.27;;;4.83;;
19664;SDS011;9980;51.020;7.772;2022-11-15T05:25:00;4.60;;;4.20;;
19664;SDS011;9980;51.020;7.772;2022-11-15T05:27:45;5.17;;;4.77;;
19664;SDS011;9980;51.020;7.772;2022-11-15T05:30:29;5.73;;;4.67;;
19664;SDS011;9980;51.020;7.772;2022-11-15T05:33:14;5.37;;;4.87;;
19664;SDS011;9980;51.020;7.772;2022-11-15T05:36:42;4.97;;;4.57;;
19664;SDS011;9980;51.020;7.772;2022-11-15T05:39:28;6.80;;;4.60;;
19664;SDS011;9980;51.020;7.772;2022-11-15T05:42:14;5.07;;;4.67;;
19664;SDS011;9980;51.020;7.772;2022-11-15T05:45:01;5.57;;;4.60;;
19664;SDS011;9980;51.020;7.772;2022-11-15T05:47:50;4.80;;;4.50;;
19664;SDS011;9980;51.020;7.772;2022-11-15T05:50:41;5.00;;;4.60;;
19664;SDS011;9980;51.020;7.772;2022-11-15T05:53:29;4.83;;;4.37;;
19664;SDS011;9980;51.020;7.772;2022-11-15T05:56:15;4.47;;;4.07;;
19664;SDS011;9980;51.020;7.772;2022-11-15T05:59:00;4.97;;;4.57;;
19664;SDS011;9980;51.020;7.772;2022-11-15T06:01:46;6.10;;;3.87;;
19664;SDS011;9980;51.020;7.772;2022-11-15T06:04:31;4.60;;;4.30;;
19664;SDS011;9980;51.020;7.772;2022-11-15T06:07:16;4.50;;;4.17;;
19664;SDS011;9980;51.020;7.772;2022-11-15T06:10:01;4.77;;;4.27;;
19664;SDS011;9980;51.020;7.772;2022-11-15T06:12:46;4.67;;;4.27;;
19664;SDS011;9980;51.020;7.772;2022-11-15T06:15:31;5.17;;;4.77;;
19664;SDS011;9980;51.020;7.772;2022-11-15T06:18:18;4.30;;;3.90;;
19664;SDS011;9980;51.020;7.772;2022-11-15T06:21:03;4.20;;;3.90;;
19664;SDS011;9980;51.020;7.772;2022-11-15T06:23:49;4.67;;;4.27;;
19664;SDS011;9980;51.020;7.772;2022-11-15T06:26:33;4.73;;;4.33;;
19664;SDS011;9980;51.020;7.772;2022-11-15T06:29:18;5.10;;;4.60;;
19664;SDS011;9980;51.020;7.772;2022-11-15T06:32:03;5.10;;;4.60;;
19664;SDS011;9980;51.020;7.772;2022-11-15T06:34:48;5.43;;;4.93;;
19664;SDS011;9980;51.020;7.772;2022-11-15T06:37:33;5.00;;;4.53;;
19664;SDS011;9980;51.020;7.772;2022-11-15T06:40:18;5.23;;;4.73;;
19664;SDS011;9980;51.020;7.772;2022-11-15T06:43:03;4.97;;;4.47;;
19664;SDS011;9980;51.020;7.772;2022-11-15T06:45:49;5.07;;;4.67;;
19664;SDS011;9980;51.020;7.772;2022-11-15T06:48:34;4.80;;;4.40;;
19664;SDS011;9980;51.020;7.772;2022-11-15T06:51:20;5.30;;;4.33;;
19664;SDS011;9980;51.020;7.772;2022-11-15T06:54:04;4.83;;;4.43;;
19664;SDS011;9980;51.020;7.772;2022-11-15T06:56:49;4.57;;;4.17;;
19664;SDS011;9980;51.020;7.772;2022-11-15T06:59:34;5.10;;;4.60;;
19664;SDS011;9980;51.020;7.772;2022-11-15T07:02:24;6.40;;;5.57;;
19664;SDS011;9980;51.020;7.772;2022-11-15T07:05:09;4.37;;;4.00;;
19664;SDS011;9980;51.020;7.772;2022-11-15T07:07:55;3.90;;;3.60;;
19664;SDS011;9980;51.020;7.772;2022-11-15T07:10:41;4.87;;;4.30;;
19664;SDS011;9980;51.020;7.772;2022-11-15T07:13:27;4.00;;;3.60;;
19664;SDS011;9980;51.020;7.772;2022-11-15T07:16:17;4.63;;;3.73;;
19664;SDS011;9980;51.020;7.772;2022-11-15T07:19:02;4.37;;;3.97;;
19664;SDS011;9980;51.020;7.772;2022-11-15T07:21:46;3.87;;;3.50;;
19664;SDS011;9980;51.020;7.772;2022-11-15T07:24:31;6.00;;;4.67;;
19664;SDS011;9980;51.020;7.772;2022-11-15T07:27:16;3.90;;;3.50;;
19664;SDS011;9980;51.020;7.772;2022-11-15T07:30:01;5.63;;;3.90;;
19664;SDS011;9980;51.020;7.772;2022-11-15T07:32:47;4.83;;;4.10;;
19664;SDS011;9980;51.020;7.772;2022-11-15T07:35:39;4.20;;;3.67;;
19664;SDS011;9980;51.020;7.772;2022-11-15T07:38:23;4.13;;;3.83;;
19664;SDS011;9980;51.020;7.772;2022-11-15T07:41:08;4.57;;;4.03;;
19664;SDS011;9980;51.020;7.772;2022-11-15T07:43:53;3.93;;;3.63;;
19664;SDS011;9980;51.020;7.772;2022-11-15T07:46:38;7.20;;;6.50;;
19664;SDS011;9980;51.020;7.772;2022-11-15T07:49:23;4.93;;;4.53;;
19664;SDS011;9980;51.020;7.772;2022-11-15T07:52:07;4.00;;;3.70;;
19664;SDS011;9980;51.020;7.772;2022-11-15T07:54:52;9.10;;;8.20;;
19664;SDS011;9980;51.020;7.772;2022-11-15T07:57:37;4.03;;;3.70;;
19664;SDS011;9980;51.020;7.772;2022-11-15T08:00:22;5.53;;;3.80;;
19664;SDS011;9980;51.020;7.772;2022-11-15T08:05:54;4.20;;;3.80;;
19664;SDS011;9980;51.020;7.772;2022-11-15T08:08:39;4.00;;;3.50;;
19664;SDS011;9980;51.020;7.772;2022-11-15T08:11:23;4.33;;;3.93;;
19664;SDS011;9980;51.020;7.772;2022-11-15T08:14:08;3.67;;;3.37;;
19664;SDS011;9980;51.020;7.772;2022-11-15T08:16:54;3.97;;;3.67;;
19664;SDS011;9980;51.020;7.772;2022-11-15T08:19:39;3.77;;;3.40;;
19664;SDS011;9980;51.020;7.772;2022-11-15T08:22:23;3.10;;;2.90;;
19664;SDS011;9980;51.020;7.772;2022-11-15T08:25:08;4.53;;;4.13;;
19664;SDS011;9980;51.020;7.772;2022-11-15T08:27:53;4.53;;;4.13;;
19664;SDS011;9980;51.020;7.772;2022-11-15T08:30:40;5.00;;;4.50;;
19664;SDS011;9980;51.020;7.772;2022-11-15T08:33:27;4.10;;;3.50;;
19664;SDS011;9980;51.020;7.772;2022-11-15T08:36:13;4.70;;;4.20;;
19664;SDS011;9980;51.020;7.772;2022-11-15T08:39:00;3.90;;;3.60;;
19664;SDS011;9980;51.020;7.772;2022-11-15T08:41:45;9.77;;;9.07;;
19664;SDS011;9980;51.020;7.772;2022-11-15T08:44:29;5.03;;;4.60;;
19664;SDS011;9980;51.020;7.772;2022-11-15T08:47:14;3.90;;;3.60;;
19664;SDS011;9980;51.020;7.772;2022-11-15T08:49:58;5.13;;;4.73;;
19664;SDS011;9980;51.020;7.772;2022-11-15T08:52:44;5.50;;;4.03;;
19664;SDS011;9980;51.020;7.772;2022-11-15T08:55:28;4.17;;;3.77;;
19664;SDS011;9980;51.020;7.772;2022-11-15T08:58:13;3.87;;;3.53;;
19664;SDS011;9980;51.020;7.772;2022-11-15T09:00:57;4.20;;;3.80;;
19664;SDS011;9980;51.020;7.772;2022-11-15T09:03:42;3.67;;;3.37;;
19664;SDS011;9980;51.020;7.772;2022-11-15T09:06:27;4.93;;;4.07;;
19664;SDS011;9980;51.020;7.772;2022-11-15T09:09:11;4.03;;;3.70;;
19664;SDS011;9980;51.020;7.772;2022-11-15T09:11:56;3.83;;;3.53;;
19664;SDS011;9980;51.020;7.772;2022-11-15T09:14:46;3.97;;;3.63;;
19664;SDS011;9980;51.020;7.772;2022-11-15T09:17:31;4.03;;;3.63;;
19664;SDS011;9980;51.020;7.772;2022-11-15T09:20:15;3.77;;;3.47;;
19664;SDS011;9980;51.020;7.772;2022-11-15T09:23:01;4.67;;;3.70;;
19664;SDS011;9980;51.020;7.772;2022-11-15T09:25:47;7.00;;;4.23;;
19664;SDS011;9980;51.020;7.772;2022-11-15T09:28:32;3.90;;;3.50;;
19664;SDS011;9980;51.020;7.772;2022-11-15T09:31:18;4.30;;;3.90;;
19664;SDS011;9980;51.020;7.772;2022-11-15T09:34:06;3.30;;;3.00;;
19664;SDS011;9980;51.020;7.772;2022-11-15T09:36:50;4.30;;;3.90;;
19664;SDS011;9980;51.020;7.772;2022-11-15T09:39:35;5.60;;;4.13;;
19664;SDS011;9980;51.020;7.772;2022-11-15T09:42:25;4.73;;;4.33;;
19664;SDS011;9980;51.020;7.772;2022-11-15T09:45:52;3.77;;;3.47;;
19664;SDS011;9980;51.020;7.772;2022-11-15T09:48:58;3.10;;;2.90;;
19664;SDS011;9980;51.020;7.772;2022-11-15T09:51:55;5.30;;;3.60;;
19664;SDS011;9980;51.020;7.772;2022-11-15T09:57:32;3.80;;;3.40;;
19664;SDS011;9980;51.020;7.772;2022-11-15T10:05:41;2.93;;;2.50;;
19664;SDS011;9980;51.020;7.772;2022-11-15T10:11:28;3.50;;;3.17;;
19664;SDS011;9980;51.020;7.772;2022-11-15T10:14:11;3.53;;;3.13;;
19664;SDS011;9980;51.020;7.772;2022-11-15T10:16:56;4.10;;;2.77;;
19664;SDS011;9980;51.020;7.772;2022-11-15T10:22:48;3.20;;;2.60;;
19664;SDS011;9980;51.020;7.772;2022-11-15T10:27:54;5.33;;;2.33;;
19664;SDS011;9980;51.020;7.772;2022-11-15T10:30:41;3.80;;;2.50;;
19664;SDS011;9980;51.020;7.772;2022-11-15T10:33:25;2.80;;;2.40;;
19664;SDS011;9980;51.020;7.772;2022-11-15T10:41:16;3.93;;;2.30;;
19664;SDS011;9980;51.020;7.772;2022-11-15T10:47:20;2.87;;;1.73;;
19664;SDS011;9980;51.020;7.772;2022-11-15T10:49:57;1.97;;;1.87;;
19664;SDS011;9980;51.020;7.772;2022-11-15T10:52:34;2.50;;;2.30;;
19664;SDS011;9980;51.020;7.772;2022-11-15T10:55:03;2.30;;;2.10;;
19664;SDS011;9980;51.020;7.772;2022-11-15T10:57:52;2.27;;;1.87;;
19664;SDS011;9980;51.020;7.772;2022-11-15T11:00:46;2.00;;;1.80;;
19664;SDS011;9980;51.020;7.772;2022-11-15T11:03:29;2.00;;;1.90;;
19664;SDS011;9980;51.020;7.772;2022-11-15T11:06:04;2.00;;;1.80;;
19664;SDS011;9980;51.020;7.772;2022-11-15T11:09:05;2.87;;;1.77;;
19664;SDS011;9980;51.020;7.772;2022-11-15T11:11:48;1.70;;;1.60;;
19664;SDS011;9980;51.020;7.772;2022-11-15T11:14:20;1.93;;;1.77;;
19664;SDS011;9980;51.020;7.772;2022-11-15T11:19:55;2.00;;;1.77;;
19664;SDS011;9980;51.020;7.772;2022-11-15T11:25:32;2.03;;;1.73;;
19664;SDS011;9980;51.020;7.772;2022-11-15T11:28:33;2.10;;;1.80;;
19664;SDS011;9980;51.020;7.772;2022-11-15T11:34:09;2.43;;;1.70;;
19664;SDS011;9980;51.020;7.772;2022-11-15T11:37:17;2.10;;;1.90;;
19664;SDS011;9980;51.020;7.772;2022-11-15T11:42:59;1.50;;;1.40;;
19664;SDS011;9980;51.020;7.772;2022-11-15T11:49:12;1.67;;;1.50;;
19664;SDS011;9980;51.020;7.772;2022-11-15T11:52:02;2.07;;;1.50;;
19664;SDS011;9980;51.020;7.772;2022-11-15T11:54:54;2.47;;;1.67;;
19664;SDS011;9980;51.020;7.772;2022-11-15T12:00:19;2.37;;;1.90;;
19664;SDS011;9980;51.020;7.772;2022-11-15T12:02:54;2.37;;;1.70;;
19664;SDS011;9980;51.020;7.772;2022-11-15T12:08:53;1.90;;;1.47;;
19664;SDS011;9980;51.020;7.772;2022-11-15T12:14:01;3.77;;;1.80;;
19664;SDS011;9980;51.020;7.772;2022-11-15T12:16:36;1.93;;;1.70;;
19664;SDS011;9980;51.020;7.772;2022-11-15T12:19:08;1.77;;;1.60;;
19664;SDS011;9980;51.020;7.772;2022-11-15T12:24:06;3.70;;;1.60;;
19664;SDS011;9980;51.020;7.772;2022-11-15T12:27:05;2.20;;;1.60;;
19664;SDS011;9980;51.020;7.772;2022-11-15T12:29:54;3.33;;;1.70;;
19664;SDS011;9980;51.020;7.772;2022-11-15T12:32:37;2.63;;;1.50;;
19664;SDS011;9980;51.020;7.772;2022-11-15T12:35:20;2.90;;;1.70;;
19664;SDS011;9980;51.020;7.772;2022-11-15T12:39:09;1.90;;;1.70;;
19664;SDS011;9980;51.020;7.772;2022-11-15T12:41:29;2.90;;;1.60;;
19664;SDS011;9980;51.020;7.772;2022-11-15T12:44:02;2.13;;;1.80;;
19664;SDS011;9980;51.020;7.772;2022-11-15T12:48:59;2.00;;;1.80;;
19664;SDS011;9980;51.020;7.772;2022-11-15T13:17:38;2.87;;;2.30;;
19664;SDS011;9980;51.020;7.772;2022-11-15T13:22:40;4.80;;;4.23;;
19664;SDS011;9980;51.020;7.772;2022-11-15T13:28:32;2.47;;;2.17;;
19664;SDS011;9980;51.020;7.772;2022-11-15T13:31:23;1.87;;;1.77;;
19664;SDS011;9980;51.020;7.772;2022-11-15T13:39:47;6.57;;;2.67;;
19664;SDS011;9980;51.020;7.772;2022-11-15T13:42:15;4.87;;;2.20;;
19664;SDS011;9980;51.020;7.772;2022-11-15T13:44:58;3.07;;;2.03;;
19664;SDS011;9980;51.020;7.772;2022-11-15T13:47:28;9.43;;;6.27;;
19664;SDS011;9980;51.020;7.772;2022-11-15T13:49:57;3.00;;;2.70;;
19664;SDS011;9980;51.020;7.772;2022-11-15T13:52:31;2.80;;;2.10;;
19664;SDS011;9980;51.020;7.772;2022-11-15T13:57:48;2.50;;;2.30;;
19664;SDS011;9980;51.020;7.772;2022-11-15T14:03:16;6.37;;;3.17;;
19664;SDS011;9980;51.020;7.772;2022-11-15T14:06:07;4.00;;;2.50;;
19664;SDS011;9980;51.020;7.772;2022-11-15T14:08:57;3.07;;;2.73;;
19664;SDS011;9980;51.020;7.772;2022-11-15T14:11:36;2.60;;;2.40;;
19664;SDS011;9980;51.020;7.772;2022-11-15T14:14:15;3.20;;;2.90;;
19664;SDS011;9980;51.020;7.772;2022-11-15T14:16:42;3.07;;;2.30;;
19664;SDS011;9980;51.020;7.772;2022-11-15T14:24:40;4.50;;;2.33;;
19664;SDS011;9980;51.020;7.772;2022-11-15T14:27:24;3.33;;;2.30;;
19664;SDS011;9980;51.020;7.772;2022-11-15T14:29:53;1.90;;;1.80;;
19664;SDS011;9980;51.020;7.772;2022-11-15T14:32:24;4.00;;;1.90;;
19664;SDS011;9980;51.020;7.772;2022-11-15T14:34:57;3.53;;;2.30;;
19664;SDS011;9980;51.020;7.772;2022-11-15T14:37:26;2.40;;;2.20;;
19664;SDS011;9980;51.020;7.772;2022-11-15T14:40:00;2.23;;;2.10;;
19664;SDS011;9980;51.020;7.772;2022-11-15T14:42:31;2.60;;;1.97;;
19664;SDS011;9980;51.020;7.772;2022-11-15T14:44:58;4.80;;;2.17;;
19664;SDS011;9980;51.020;7.772;2022-11-15T14:47:24;2.50;;;2.00;;
19664;SDS011;9980;51.020;7.772;2022-11-15T14:49:50;3.07;;;2.77;;
19664;SDS011;9980;51.020;7.772;2022-11-15T14:52:24;3.07;;;2.77;;
19664;SDS011;9980;51.020;7.772;2022-11-15T14:54:58;2.73;;;2.27;;
19664;SDS011;9980;51.020;7.772;2022-11-15T14:57:26;2.77;;;2.30;;
19664;SDS011;9980;51.020;7.772;2022-11-15T14:59:53;2.60;;;1.93;;
19664;SDS011;9980;51.020;7.772;2022-11-15T15:02:21;3.37;;;2.20;;
19664;SDS011;9980;51.020;7.772;2022-11-15T15:04:50;3.03;;;2.40;;
19664;SDS011;9980;51.020;7.772;2022-11-15T15:07:17;3.17;;;2.87;;
19664;SDS011;9980;51.020;7.772;2022-11-15T15:09:44;2.73;;;2.53;;
19664;SDS011;9980;51.020;7.772;2022-11-15T15:12:19;2.97;;;2.77;;
19664;SDS011;9980;51.020;7.772;2022-11-15T15:14:47;3.63;;;3.33;;
19664;SDS011;9980;51.020;7.772;2022-11-15T15:17:15;3.00;;;2.47;;
19664;SDS011;9980;51.020;7.772;2022-11-15T15:19:43;2.60;;;2.40;;
19664;SDS011;9980;51.020;7.772;2022-11-15T15:22:14;6.43;;;2.90;;
19664;SDS011;9980;51.020;7.772;2022-11-15T15:24:47;5.23;;;3.50;;
19664;SDS011;9980;51.020;7.772;2022-11-15T15:27:13;3.17;;;2.90;;
19664;SDS011;9980;51.020;7.772;2022-11-15T15:29:40;2.37;;;2.17;;
19664;SDS011;9980;51.020;7.772;2022-11-15T15:32:07;3.17;;;2.97;;
19664;SDS011;9980;51.020;7.772;2022-11-15T15:34:35;4.20;;;3.80;;
19664;SDS011;9980;51.020;7.772;2022-11-15T15:39:48;5.57;;;5.03;;
19664;SDS011;9980;51.020;7.772;2022-11-15T15:42:21;5.10;;;4.70;;
19664;SDS011;9980;51.020;7.772;2022-11-15T15:44:48;2.97;;;2.60;;
19664;SDS011;9980;51.020;7.772;2022-11-15T15:47:17;4.23;;;2.90;;
19664;SDS011;9980;51.020;7.772;2022-11-15T15:49:49;3.47;;;2.97;;
19664;SDS011;9980;51.020;7.772;2022-11-15T15:52:16;3.07;;;2.87;;
19664;SDS011;9980;51.020;7.772;2022-11-15T15:54:42;3.10;;;2.80;;
19664;SDS011;9980;51.020;7.772;2022-11-15T15:57:11;2.40;;;2.20;;
19664;SDS011;9980;51.020;7.772;2022-11-15T15:59:39;3.47;;;3.17;;
19664;SDS011;9980;51.020;7.772;2022-11-15T16:02:05;3.23;;;2.40;;
19664;SDS011;9980;51.020;7.772;2022-11-15T16:04:37;2.70;;;2.50;;
19664;SDS011;9980;51.020;7.772;2022-11-15T16:07:03;6.60;;;5.00;;
19664;SDS011;9980;51.020;7.772;2022-11-15T16:09:29;9.70;;;6.77;;
19664;SDS011;9980;51.020;7.772;2022-11-15T16:12:14;5.23;;;4.10;;
19664;SDS011;9980;51.020;7.772;2022-11-15T16:14:42;5.20;;;3.90;;
19664;SDS011;9980;51.020;7.772;2022-11-15T16:17:14;3.80;;;3.50;;
19664;SDS011;9980;51.020;7.772;2022-11-15T16:19:46;5.27;;;3.70;;
19664;SDS011;9980;51.020;7.772;2022-11-15T16:22:12;4.40;;;4.00;;
19664;SDS011;9980;51.020;7.772;2022-11-15T16:24:38;3.57;;;3.27;;
19664;SDS011;9980;51.020;7.772;2022-11-15T16:27:05;3.57;;;3.27;;
19664;SDS011;9980;51.020;7.772;2022-11-15T16:29:41;3.70;;;3.50;;
19664;SDS011;9980;51.020;7.772;2022-11-15T16:32:07;3.80;;;3.50;;
19664;SDS011;9980;51.020;7.772;2022-11-15T16:34:34;7.40;;;3.70;;
19664;SDS011;9980;51.020;7.772;2022-11-15T16:37:22;6.53;;;3.40;;
19664;SDS011;9980;51.020;7.772;2022-11-15T16:39:49;2.60;;;2.40;;
19664;SDS011;9980;51.020;7.772;2022-11-15T16:42:16;7.83;;;3.00;;
19664;SDS011;9980;51.020;7.772;2022-11-15T16:44:42;3.13;;;2.83;;
19664;SDS011;9980;51.020;7.772;2022-11-15T16:47:18;4.90;;;2.80;;
19664;SDS011;9980;51.020;7.772;2022-11-15T16:49:45;3.03;;;2.57;;
19664;SDS011;9980;51.020;7.772;2022-11-15T16:52:11;2.90;;;2.50;;
19664;SDS011;9980;51.020;7.772;2022-11-15T16:54:40;3.73;;;2.17;;
19664;SDS011;9980;51.020;7.772;2022-11-15T16:57:07;4.53;;;2.33;;
19664;SDS011;9980;51.020;7.772;2022-11-15T16:59:35;3.37;;;2.47;;
19664;SDS011;9980;51.020;7.772;2022-11-15T17:02:04;2.50;;;2.10;;
19664;SDS011;9980;51.020;7.772;2022-11-15T17:04:37;4.10;;;2.43;;
19664;SDS011;9980;51.020;7.772;2022-11-15T17:07:03;3.40;;;2.90;;
19664;SDS011;9980;51.020;7.772;2022-11-15T17:09:29;3.33;;;3.00;;
19664;SDS011;9980;51.020;7.772;2022-11-15T17:11:57;4.17;;;3.20;;
19664;SDS011;9980;51.020;7.772;2022-11-15T17:14:23;4.03;;;3.43;;
19664;SDS011;9980;51.020;7.772;2022-11-15T17:16:50;6.13;;;3.80;;
19664;SDS011;9980;51.020;7.772;2022-11-15T17:19:17;4.47;;;3.63;;
19664;SDS011;9980;51.020;7.772;2022-11-15T17:21:45;5.03;;;4.30;;
19664;SDS011;9980;51.020;7.772;2022-11-15T17:24:16;5.10;;;4.60;;
19664;SDS011;9980;51.020;7.772;2022-11-15T17:26:42;5.27;;;4.10;;
19664;SDS011;9980;51.020;7.772;2022-11-15T17:29:08;6.90;;;6.23;;
19664;SDS011;9980;51.020;7.772;2022-11-15T17:31:35;4.70;;;4.30;;
19664;SDS011;9980;51.020;7.772;2022-11-15T17:34:04;4.80;;;4.40;;
19664;SDS011;9980;51.020;7.772;2022-11-15T17:36:31;6.13;;;4.47;;
19664;SDS011;9980;51.020;7.772;2022-11-15T17:38:58;5.27;;;4.77;;
19664;SDS011;9980;51.020;7.772;2022-11-15T17:41:25;5.17;;;4.77;;
19664;SDS011;9980;51.020;7.772;2022-11-15T17:43:57;6.87;;;5.57;;
19664;SDS011;9980;51.020;7.772;2022-11-15T17:46:24;8.93;;;6.70;;
19664;SDS011;9980;51.020;7.772;2022-11-15T17:48:55;7.10;;;5.57;;
19664;SDS011;9980;51.020;7.772;2022-11-15T17:51:22;6.33;;;5.83;;
19664;SDS011;9980;51.020;7.772;2022-11-15T17:53:48;8.00;;;5.33;;
19664;SDS011;9980;51.020;7.772;2022-11-15T17:56:16;6.10;;;5.50;;
19664;SDS011;9980;51.020;7.772;2022-11-15T17:58:54;6.53;;;5.30;;
19664;SDS011;9980;51.020;7.772;2022-11-15T18:01:30;8.53;;;6.63;;
19664;SDS011;9980;51.020;7.772;2022-11-15T18:03:59;7.03;;;6.20;;
19664;SDS011;9980;51.020;7.772;2022-11-15T18:06:29;7.43;;;6.17;;
19664;SDS011;9980;51.020;7.772;2022-11-15T18:08:58;6.93;;;5.87;;
19664;SDS011;9980;51.020;7.772;2022-11-15T18:11:26;5.53;;;4.97;;
19664;SDS011;9980;51.020;7.772;2022-11-15T18:13:58;6.73;;;5.63;;
19664;SDS011;9980;51.020;7.772;2022-11-15T18:16:29;8.43;;;7.60;;
19664;SDS011;9980;51.020;7.772;2022-11-15T18:19:00;7.10;;;6.50;;
19664;SDS011;9980;51.020;7.772;2022-11-15T18:21:33;7.80;;;7.00;;
19664;SDS011;9980;51.020;7.772;2022-11-15T18:24:20;7.20;;;6.60;;
19664;SDS011;9980;51.020;7.772;2022-11-15T18:26:48;7.43;;;6.23;;
19664;SDS011;9980;51.020;7.772;2022-11-15T18:29:14;7.23;;;6.53;;
19664;SDS011;9980;51.020;7.772;2022-11-15T18:31:41;11.20;;;10.20;;
19664;SDS011;9980;51.020;7.772;2022-11-15T18:34:12;8.33;;;7.53;;
19664;SDS011;9980;51.020;7.772;2022-11-15T18:36:39;8.30;;;7.50;;
19664;SDS011;9980;51.020;7.772;2022-11-15T18:39:05;10.27;;;8.03;;